sensor_id;sensor_type;location;lat;lon;timestamp;P1;durP1;ratioP1;P2;durP2;ratioP2
12052;SDS011;6087;48.982;12.064;2023-04-03T00:02:00;2.20;;;2.00;;
12052;SDS011;6087;48.982;12.064;2023-04-03T00:04:27;2.30;;;2.10;;
12052;SDS011;6087;48.982;12.064;2023-04-03T00:06:56;2.97;;;2.43;;
12052;SDS011;6087;48.982;12.064;2023-04-03T00:09:23;2.83;;;2.40;;
12052;SDS011;6087;48.982;12.064;2023-04-03T00:11:50;2.30;;;2.07;;
12052;SDS011;6087;48.982;12.064;2023-04-03T00:14:17;2.47;;;1.77;;
12052;SDS011;6087;48.982;12.064;2023-04-03T00:16:44;2.20;;;2.00;;
12052;SDS011;6087;48.982;12.064;2023-04-03T00:19:11;2.10;;;1.90;;
12052;SDS011;6087;48.982;12.064;2023-04-03T00:21:38;2.87;;;2.10;;
12052;SDS011;6087;48.982;12.064;2023-04-03T00:24:06;2.50;;;2.30;;
12052;SDS011;6087;48.982;12.064;2023-04-03T00:26:33;2.63;;;2.23;;
12052;SDS011;6087;48.982;12.064;2023-04-03T00:29:00;3.87;;;2.63;;
12052;SDS011;6087;48.982;12.064;2023-04-03T00:31:27;2.60;;;2.40;;
12052;SDS011;6087;48.982;12.064;2023-04-03T00:33:54;1.87;;;1.77;;
12052;SDS011;6087;48.982;12.064;2023-04-03T00:36:23;3.77;;;1.87;;
12052;SDS011;6087;48.982;12.064;2023-04-03T00:38:50;2.30;;;2.10;;
12052;SDS011;6087;48.982;12.064;2023-04-03T00:41:18;2.43;;;2.03;;
12052;SDS011;6087;48.982;12.064;2023-04-03T00:43:46;2.97;;;2.30;;
12052;SDS011;6087;48.982;12.064;2023-04-03T00:46:13;2.00;;;1.60;;
12052;SDS011;6087;48.982;12.064;2023-04-03T00:48:41;2.30;;;2.10;;
12052;SDS011;6087;48.982;12.064;2023-04-03T00:51:12;2.10;;;2.00;;
12052;SDS011;6087;48.982;12.064;2023-04-03T00:53:44;2.33;;;2.13;;
12052;SDS011;6087;48.982;12.064;2023-04-03T00:56:14;1.87;;;1.77;;
12052;SDS011;6087;48.982;12.064;2023-04-03T00:58:46;3.27;;;2.20;;
12052;SDS011;6087;48.982;12.064;2023-04-03T01:01:15;2.20;;;2.00;;
12052;SDS011;6087;48.982;12.064;2023-04-03T01:03:47;2.27;;;2.07;;
12052;SDS011;6087;48.982;12.064;2023-04-03T01:06:14;2.97;;;2.30;;
12052;SDS011;6087;48.982;12.064;2023-04-03T01:08:46;2.57;;;2.10;;
12052;SDS011;6087;48.982;12.064;2023-04-03T01:11:15;2.40;;;2.10;;
12052;SDS011;6087;48.982;12.064;2023-04-03T01:13:42;3.17;;;2.30;;
12052;SDS011;6087;48.982;12.064;2023-04-03T01:16:10;3.40;;;1.80;;
12052;SDS011;6087;48.982;12.064;2023-04-03T01:18:38;2.23;;;2.03;;
12052;SDS011;6087;48.982;12.064;2023-04-03T01:24:27;2.43;;;2.23;;
12052;SDS011;6087;48.982;12.064;2023-04-03T01:26:59;4.03;;;2.50;;
12052;SDS011;6087;48.982;12.064;2023-04-03T01:29:29;4.00;;;2.23;;
12052;SDS011;6087;48.982;12.064;2023-04-03T01:31:57;2.53;;;2.30;;
12052;SDS011;6087;48.982;12.064;2023-04-03T01:34:26;2.13;;;1.93;;
12052;SDS011;6087;48.982;12.064;2023-04-03T01:36:54;3.33;;;2.33;;
12052;SDS011;6087;48.982;12.064;2023-04-03T01:39:21;2.60;;;2.30;;
12052;SDS011;6087;48.982;12.064;2023-04-03T01:41:48;2.63;;;2.30;;
12052;SDS011;6087;48.982;12.064;2023-04-03T01:44:15;3.67;;;2.10;;
12052;SDS011;6087;48.982;12.064;2023-04-03T01:46:42;2.70;;;2.47;;
12052;SDS011;6087;48.982;12.064;2023-04-03T01:49:10;2.67;;;2.00;;
12052;SDS011;6087;48.982;12.064;2023-04-03T01:51:37;2.17;;;1.97;;
12052;SDS011;6087;48.982;12.064;2023-04-03T01:54:04;2.30;;;2.10;;
12052;SDS011;6087;48.982;12.064;2023-04-03T01:56:31;2.80;;;2.13;;
12052;SDS011;6087;48.982;12.064;2023-04-03T01:58:58;2.57;;;1.87;;
12052;SDS011;6087;48.982;12.064;2023-04-03T02:01:25;2.73;;;2.07;;
12052;SDS011;6087;48.982;12.064;2023-04-03T02:03:52;2.17;;;1.97;;
12052;SDS011;6087;48.982;12.064;2023-04-03T02:06:21;4.03;;;2.43;;
12052;SDS011;6087;48.982;12.064;2023-04-03T02:08:47;2.10;;;1.93;;
12052;SDS011;6087;48.982;12.064;2023-04-03T02:11:14;2.40;;;2.20;;
12052;SDS011;6087;48.982;12.064;2023-04-03T02:13:41;2.20;;;2.00;;
12052;SDS011;6087;48.982;12.064;2023-04-03T02:16:08;2.53;;;2.10;;
12052;SDS011;6087;48.982;12.064;2023-04-03T02:18:36;4.90;;;2.27;;
12052;SDS011;6087;48.982;12.064;2023-04-03T02:21:04;2.17;;;2.07;;
12052;SDS011;6087;48.982;12.064;2023-04-03T02:23:32;2.00;;;1.90;;
12052;SDS011;6087;48.982;12.064;2023-04-03T02:26:04;2.23;;;2.03;;
12052;SDS011;6087;48.982;12.064;2023-04-03T02:28:36;2.57;;;2.37;;
12052;SDS011;6087;48.982;12.064;2023-04-03T02:31:03;2.10;;;1.97;;
12052;SDS011;6087;48.982;12.064;2023-04-03T02:33:34;4.20;;;2.33;;
12052;SDS011;6087;48.982;12.064;2023-04-03T02:36:02;2.30;;;2.10;;
12052;SDS011;6087;48.982;12.064;2023-04-03T02:38:30;4.27;;;2.53;;
12052;SDS011;6087;48.982;12.064;2023-04-03T02:41:02;2.33;;;2.07;;
12052;SDS011;6087;48.982;12.064;2023-04-03T02:43:30;2.73;;;2.20;;
12052;SDS011;6087;48.982;12.064;2023-04-03T02:45:57;2.60;;;2.20;;
12052;SDS011;6087;48.982;12.064;2023-04-03T02:48:26;2.80;;;2.33;;
12052;SDS011;6087;48.982;12.064;2023-04-03T02:50:53;2.60;;;2.40;;
12052;SDS011;6087;48.982;12.064;2023-04-03T02:53:21;2.40;;;1.90;;
12052;SDS011;6087;48.982;12.064;2023-04-03T02:55:49;2.80;;;2.60;;
12052;SDS011;6087;48.982;12.064;2023-04-03T02:58:16;2.60;;;2.40;;
12052;SDS011;6087;48.982;12.064;2023-04-03T03:00:43;3.47;;;2.47;;
12052;SDS011;6087;48.982;12.064;2023-04-03T03:03:10;2.63;;;2.23;;
12052;SDS011;6087;48.982;12.064;2023-04-03T03:05:38;2.93;;;2.20;;
12052;SDS011;6087;48.982;12.064;2023-04-03T03:08:05;2.57;;;2.37;;
12052;SDS011;6087;48.982;12.064;2023-04-03T03:10:32;2.30;;;2.03;;
12052;SDS011;6087;48.982;12.064;2023-04-03T03:13:00;2.73;;;2.47;;
12052;SDS011;6087;48.982;12.064;2023-04-03T03:15:27;3.20;;;2.60;;
12052;SDS011;6087;48.982;12.064;2023-04-03T03:17:54;1.90;;;1.80;;
12052;SDS011;6087;48.982;12.064;2023-04-03T03:20:21;2.77;;;2.30;;
12052;SDS011;6087;48.982;12.064;2023-04-03T03:22:48;2.77;;;2.37;;
12052;SDS011;6087;48.982;12.064;2023-04-03T03:25:14;2.67;;;2.07;;
12052;SDS011;6087;48.982;12.064;2023-04-03T03:27:42;2.77;;;2.20;;
12052;SDS011;6087;48.982;12.064;2023-04-03T03:30:10;2.50;;;2.30;;
12052;SDS011;6087;48.982;12.064;2023-04-03T03:32:37;2.37;;;2.17;;
12052;SDS011;6087;48.982;12.064;2023-04-03T03:35:05;2.20;;;2.00;;
12052;SDS011;6087;48.982;12.064;2023-04-03T03:37:32;2.47;;;2.27;;
12052;SDS011;6087;48.982;12.064;2023-04-03T03:39:59;2.50;;;2.30;;
12052;SDS011;6087;48.982;12.064;2023-04-03T03:42:26;2.10;;;1.90;;
12052;SDS011;6087;48.982;12.064;2023-04-03T03:44:53;2.33;;;2.23;;
12052;SDS011;6087;48.982;12.064;2023-04-03T03:47:21;2.37;;;2.17;;
12052;SDS011;6087;48.982;12.064;2023-04-03T03:49:48;3.30;;;2.33;;
12052;SDS011;6087;48.982;12.064;2023-04-03T03:52:15;2.47;;;2.33;;
12052;SDS011;6087;48.982;12.064;2023-04-03T03:54:49;2.13;;;1.93;;
12052;SDS011;6087;48.982;12.064;2023-04-03T03:57:16;2.83;;;1.97;;
12052;SDS011;6087;48.982;12.064;2023-04-03T03:59:43;2.43;;;2.23;;
12052;SDS011;6087;48.982;12.064;2023-04-03T04:02:16;2.60;;;2.40;;
12052;SDS011;6087;48.982;12.064;2023-04-03T04:04:44;2.27;;;2.07;;
12052;SDS011;6087;48.982;12.064;2023-04-03T04:07:11;2.93;;;2.57;;
12052;SDS011;6087;48.982;12.064;2023-04-03T04:09:38;2.87;;;2.53;;
12052;SDS011;6087;48.982;12.064;2023-04-03T04:12:05;2.83;;;2.03;;
12052;SDS011;6087;48.982;12.064;2023-04-03T04:14:32;2.27;;;2.13;;
12052;SDS011;6087;48.982;12.064;2023-04-03T04:16:58;2.33;;;2.10;;
12052;SDS011;6087;48.982;12.064;2023-04-03T04:19:27;3.10;;;2.43;;
12052;SDS011;6087;48.982;12.064;2023-04-03T04:21:55;2.40;;;2.20;;
12052;SDS011;6087;48.982;12.064;2023-04-03T04:24:22;2.30;;;2.10;;
12052;SDS011;6087;48.982;12.064;2023-04-03T04:26:49;2.40;;;2.30;;
12052;SDS011;6087;48.982;12.064;2023-04-03T04:29:16;2.50;;;2.20;;
12052;SDS011;6087;48.982;12.064;2023-04-03T04:31:43;3.33;;;2.43;;
12052;SDS011;6087;48.982;12.064;2023-04-03T04:34:10;3.80;;;2.30;;
12052;SDS011;6087;48.982;12.064;2023-04-03T04:36:37;2.53;;;2.33;;
12052;SDS011;6087;48.982;12.064;2023-04-03T04:39:06;2.73;;;2.33;;
12052;SDS011;6087;48.982;12.064;2023-04-03T04:41:33;4.53;;;2.60;;
12052;SDS011;6087;48.982;12.064;2023-04-03T04:44:00;2.47;;;2.27;;
12052;SDS011;6087;48.982;12.064;2023-04-03T04:46:27;2.77;;;2.03;;
12052;SDS011;6087;48.982;12.064;2023-04-03T04:48:54;3.10;;;2.13;;
12052;SDS011;6087;48.982;12.064;2023-04-03T04:51:21;3.17;;;2.10;;
12052;SDS011;6087;48.982;12.064;2023-04-03T04:53:48;2.43;;;2.23;;
12052;SDS011;6087;48.982;12.064;2023-04-03T04:56:19;3.40;;;2.40;;
12052;SDS011;6087;48.982;12.064;2023-04-03T04:58:46;2.43;;;2.23;;
12052;SDS011;6087;48.982;12.064;2023-04-03T05:01:16;2.43;;;2.20;;
12052;SDS011;6087;48.982;12.064;2023-04-03T05:03:43;2.67;;;2.10;;
12052;SDS011;6087;48.982;12.064;2023-04-03T05:06:10;2.43;;;1.97;;
12052;SDS011;6087;48.982;12.064;2023-04-03T05:08:37;3.53;;;2.07;;
12052;SDS011;6087;48.982;12.064;2023-04-03T05:11:04;3.70;;;2.27;;
12052;SDS011;6087;48.982;12.064;2023-04-03T05:13:33;4.33;;;2.50;;
12052;SDS011;6087;48.982;12.064;2023-04-03T05:16:00;2.97;;;2.40;;
12052;SDS011;6087;48.982;12.064;2023-04-03T05:18:26;2.13;;;1.93;;
12052;SDS011;6087;48.982;12.064;2023-04-03T05:20:53;2.50;;;2.20;;
12052;SDS011;6087;48.982;12.064;2023-04-03T05:23:20;3.07;;;2.27;;
12052;SDS011;6087;48.982;12.064;2023-04-03T05:25:47;4.47;;;3.10;;
12052;SDS011;6087;48.982;12.064;2023-04-03T05:28:14;2.70;;;2.27;;
12052;SDS011;6087;48.982;12.064;2023-04-03T05:30:43;2.60;;;2.40;;
12052;SDS011;6087;48.982;12.064;2023-04-03T05:33:10;4.97;;;4.17;;
12052;SDS011;6087;48.982;12.064;2023-04-03T05:35:42;5.00;;;3.03;;
12052;SDS011;6087;48.982;12.064;2023-04-03T05:38:15;3.40;;;2.50;;
12052;SDS011;6087;48.982;12.064;2023-04-03T05:40:42;3.93;;;2.93;;
12052;SDS011;6087;48.982;12.064;2023-04-03T05:43:09;5.43;;;2.80;;
12052;SDS011;6087;48.982;12.064;2023-04-03T05:45:36;4.23;;;3.27;;
12052;SDS011;6087;48.982;12.064;2023-04-03T05:48:08;4.10;;;2.53;;
12052;SDS011;6087;48.982;12.064;2023-04-03T05:50:35;3.07;;;2.77;;
12052;SDS011;6087;48.982;12.064;2023-04-03T05:53:10;2.30;;;2.10;;
12052;SDS011;6087;48.982;12.064;2023-04-03T05:55:42;3.57;;;2.40;;
12052;SDS011;6087;48.982;12.064;2023-04-03T05:58:09;2.70;;;2.47;;
12052;SDS011;6087;48.982;12.064;2023-04-03T06:00:39;3.00;;;2.80;;
12052;SDS011;6087;48.982;12.064;2023-04-03T06:03:08;3.00;;;2.80;;
12052;SDS011;6087;48.982;12.064;2023-04-03T06:05:35;3.23;;;2.87;;
12052;SDS011;6087;48.982;12.064;2023-04-03T06:08:05;2.77;;;2.50;;
12052;SDS011;6087;48.982;12.064;2023-04-03T06:10:34;3.63;;;2.80;;
12052;SDS011;6087;48.982;12.064;2023-04-03T06:13:01;3.60;;;3.00;;
12052;SDS011;6087;48.982;12.064;2023-04-03T06:15:28;3.57;;;3.07;;
12052;SDS011;6087;48.982;12.064;2023-04-03T06:17:55;4.30;;;3.03;;
12052;SDS011;6087;48.982;12.064;2023-04-03T06:20:29;3.27;;;2.70;;
12052;SDS011;6087;48.982;12.064;2023-04-03T06:22:56;4.07;;;2.87;;
12052;SDS011;6087;48.982;12.064;2023-04-03T06:25:23;4.67;;;2.90;;
12052;SDS011;6087;48.982;12.064;2023-04-03T06:27:52;3.30;;;2.80;;
12052;SDS011;6087;48.982;12.064;2023-04-03T06:30:20;3.40;;;2.93;;
12052;SDS011;6087;48.982;12.064;2023-04-03T06:32:54;3.27;;;3.00;;
12052;SDS011;6087;48.982;12.064;2023-04-03T06:35:21;4.47;;;3.27;;
12052;SDS011;6087;48.982;12.064;2023-04-03T06:37:51;4.27;;;3.30;;
12052;SDS011;6087;48.982;12.064;2023-04-03T06:40:21;4.83;;;3.83;;
12052;SDS011;6087;48.982;12.064;2023-04-03T06:42:50;7.43;;;4.10;;
12052;SDS011;6087;48.982;12.064;2023-04-03T06:45:17;8.63;;;4.93;;
12052;SDS011;6087;48.982;12.064;2023-04-03T06:47:46;7.03;;;3.80;;
12052;SDS011;6087;48.982;12.064;2023-04-03T06:50:13;5.83;;;3.53;;
12052;SDS011;6087;48.982;12.064;2023-04-03T06:52:40;3.63;;;3.33;;
12052;SDS011;6087;48.982;12.064;2023-04-03T06:55:09;4.73;;;3.87;;
12052;SDS011;6087;48.982;12.064;2023-04-03T06:57:38;3.73;;;3.07;;
12052;SDS011;6087;48.982;12.064;2023-04-03T07:00:05;5.43;;;3.83;;
12052;SDS011;6087;48.982;12.064;2023-04-03T07:02:34;4.47;;;3.40;;
12052;SDS011;6087;48.982;12.064;2023-04-03T07:05:01;3.10;;;2.80;;
12052;SDS011;6087;48.982;12.064;2023-04-03T07:07:28;7.07;;;3.53;;
12052;SDS011;6087;48.982;12.064;2023-04-03T07:09:55;3.73;;;3.03;;
12052;SDS011;6087;48.982;12.064;2023-04-03T07:12:26;6.97;;;3.07;;
12052;SDS011;6087;48.982;12.064;2023-04-03T07:14:53;4.13;;;3.30;;
12052;SDS011;6087;48.982;12.064;2023-04-03T07:17:20;3.70;;;3.00;;
12052;SDS011;6087;48.982;12.064;2023-04-03T07:19:47;5.53;;;3.20;;
12052;SDS011;6087;48.982;12.064;2023-04-03T07:22:14;5.43;;;3.40;;
12052;SDS011;6087;48.982;12.064;2023-04-03T07:24:41;3.90;;;3.13;;
12052;SDS011;6087;48.982;12.064;2023-04-03T07:27:08;3.33;;;2.80;;
12052;SDS011;6087;48.982;12.064;2023-04-03T07:29:37;3.90;;;2.23;;
12052;SDS011;6087;48.982;12.064;2023-04-03T07:32:04;6.07;;;3.07;;
12052;SDS011;6087;48.982;12.064;2023-04-03T07:34:32;3.27;;;2.97;;
12052;SDS011;6087;48.982;12.064;2023-04-03T07:36:59;4.93;;;3.00;;
12052;SDS011;6087;48.982;12.064;2023-04-03T07:39:26;5.17;;;2.73;;
12052;SDS011;6087;48.982;12.064;2023-04-03T07:41:53;4.93;;;3.40;;
12052;SDS011;6087;48.982;12.064;2023-04-03T07:44:20;6.10;;;2.90;;
12052;SDS011;6087;48.982;12.064;2023-04-03T07:46:49;4.20;;;3.13;;
12052;SDS011;6087;48.982;12.064;2023-04-03T07:49:16;3.73;;;2.87;;
12052;SDS011;6087;48.982;12.064;2023-04-03T07:51:44;4.20;;;2.70;;
12052;SDS011;6087;48.982;12.064;2023-04-03T07:54:11;3.27;;;2.43;;
12052;SDS011;6087;48.982;12.064;2023-04-03T07:56:38;5.30;;;2.30;;
12052;SDS011;6087;48.982;12.064;2023-04-03T07:59:05;3.27;;;2.50;;
12052;SDS011;6087;48.982;12.064;2023-04-03T08:01:32;4.70;;;2.23;;
12052;SDS011;6087;48.982;12.064;2023-04-03T08:04:01;3.77;;;2.03;;
12052;SDS011;6087;48.982;12.064;2023-04-03T08:06:28;2.63;;;2.30;;
12052;SDS011;6087;48.982;12.064;2023-04-03T08:08:56;2.87;;;2.47;;
12052;SDS011;6087;48.982;12.064;2023-04-03T08:11:24;3.73;;;2.83;;
12052;SDS011;6087;48.982;12.064;2023-04-03T08:13:53;2.80;;;2.10;;
12052;SDS011;6087;48.982;12.064;2023-04-03T08:16:21;2.47;;;2.00;;
12052;SDS011;6087;48.982;12.064;2023-04-03T08:18:50;3.20;;;2.40;;
12052;SDS011;6087;48.982;12.064;2023-04-03T08:21:19;4.83;;;2.27;;
12052;SDS011;6087;48.982;12.064;2023-04-03T08:23:51;3.17;;;2.10;;
12052;SDS011;6087;48.982;12.064;2023-04-03T08:26:19;1.87;;;1.67;;
12052;SDS011;6087;48.982;12.064;2023-04-03T08:28:51;3.67;;;2.00;;
12052;SDS011;6087;48.982;12.064;2023-04-03T08:31:18;2.00;;;1.80;;
12052;SDS011;6087;48.982;12.064;2023-04-03T08:33:46;3.63;;;2.60;;
12052;SDS011;6087;48.982;12.064;2023-04-03T08:36:20;3.23;;;2.30;;
12052;SDS011;6087;48.982;12.064;2023-04-03T08:38:48;4.60;;;2.10;;
12052;SDS011;6087;48.982;12.064;2023-04-03T08:41:18;4.60;;;1.70;;
12052;SDS011;6087;48.982;12.064;2023-04-03T08:44:01;2.17;;;1.97;;
12052;SDS011;6087;48.982;12.064;2023-04-03T08:46:40;5.40;;;2.07;;
12052;SDS011;6087;48.982;12.064;2023-04-03T08:49:15;2.70;;;1.67;;
12052;SDS011;6087;48.982;12.064;2023-04-03T08:51:51;2.07;;;1.70;;
12052;SDS011;6087;48.982;12.064;2023-04-03T08:54:23;1.93;;;1.73;;
12052;SDS011;6087;48.982;12.064;2023-04-03T08:56:55;2.40;;;1.87;;
12052;SDS011;6087;48.982;12.064;2023-04-03T08:59:26;3.03;;;1.83;;
12052;SDS011;6087;48.982;12.064;2023-04-03T09:01:55;3.40;;;2.00;;
12052;SDS011;6087;48.982;12.064;2023-04-03T09:04:24;3.27;;;1.60;;
12052;SDS011;6087;48.982;12.064;2023-04-03T09:06:56;5.90;;;2.10;;
12052;SDS011;6087;48.982;12.064;2023-04-03T09:09:30;3.17;;;1.70;;
12052;SDS011;6087;48.982;12.064;2023-04-03T09:12:04;2.27;;;1.33;;
12052;SDS011;6087;48.982;12.064;2023-04-03T09:14:42;1.60;;;1.30;;
12052;SDS011;6087;48.982;12.064;2023-04-03T09:17:19;1.70;;;1.30;;
12052;SDS011;6087;48.982;12.064;2023-04-03T09:19:53;2.00;;;1.30;;
12052;SDS011;6087;48.982;12.064;2023-04-03T09:22:26;3.23;;;1.40;;
12052;SDS011;6087;48.982;12.064;2023-04-03T09:24:58;3.60;;;1.40;;
12052;SDS011;6087;48.982;12.064;2023-04-03T09:27:39;2.23;;;1.20;;
12052;SDS011;6087;48.982;12.064;2023-04-03T09:30:08;1.90;;;0.97;;
12052;SDS011;6087;48.982;12.064;2023-04-03T09:32:40;2.93;;;1.13;;
12052;SDS011;6087;48.982;12.064;2023-04-03T09:35:14;1.80;;;1.07;;
12052;SDS011;6087;48.982;12.064;2023-04-03T09:37:46;3.83;;;1.30;;
12052;SDS011;6087;48.982;12.064;2023-04-03T09:40:33;2.47;;;1.00;;
12052;SDS011;6087;48.982;12.064;2023-04-03T09:46:28;1.00;;;0.90;;
12052;SDS011;6087;48.982;12.064;2023-04-03T09:49:01;1.10;;;0.93;;
12052;SDS011;6087;48.982;12.064;2023-04-03T09:51:30;1.63;;;1.00;;
12052;SDS011;6087;48.982;12.064;2023-04-03T09:53:59;1.17;;;1.03;;
12052;SDS011;6087;48.982;12.064;2023-04-03T09:56:27;1.40;;;1.00;;
12052;SDS011;6087;48.982;12.064;2023-04-03T10:01:43;1.53;;;0.83;;
12052;SDS011;6087;48.982;12.064;2023-04-03T10:04:23;0.83;;;0.80;;
12052;SDS011;6087;48.982;12.064;2023-04-03T10:06:51;1.70;;;1.23;;
12052;SDS011;6087;48.982;12.064;2023-04-03T10:09:24;1.73;;;1.30;;
12052;SDS011;6087;48.982;12.064;2023-04-03T10:12:00;2.13;;;1.13;;
12052;SDS011;6087;48.982;12.064;2023-04-03T10:14:30;3.43;;;1.10;;
12052;SDS011;6087;48.982;12.064;2023-04-03T10:16:59;2.37;;;1.20;;
12052;SDS011;6087;48.982;12.064;2023-04-03T10:19:35;2.50;;;1.03;;
12052;SDS011;6087;48.982;12.064;2023-04-03T10:22:11;2.17;;;0.97;;
12052;SDS011;6087;48.982;12.064;2023-04-03T10:24:47;1.30;;;1.00;;
12052;SDS011;6087;48.982;12.064;2023-04-03T10:27:21;1.53;;;1.10;;
12052;SDS011;6087;48.982;12.064;2023-04-03T10:29:59;1.73;;;1.00;;
12052;SDS011;6087;48.982;12.064;2023-04-03T10:35:20;0.77;;;0.77;;
12052;SDS011;6087;48.982;12.064;2023-04-03T10:37:59;1.90;;;1.10;;
12052;SDS011;6087;48.982;12.064;2023-04-03T10:40:33;1.13;;;0.87;;
12052;SDS011;6087;48.982;12.064;2023-04-03T10:43:06;2.57;;;0.80;;
12052;SDS011;6087;48.982;12.064;2023-04-03T10:45:47;1.60;;;1.00;;
12052;SDS011;6087;48.982;12.064;2023-04-03T10:48:22;1.83;;;1.20;;
12052;SDS011;6087;48.982;12.064;2023-04-03T10:51:00;0.87;;;0.87;;
12052;SDS011;6087;48.982;12.064;2023-04-03T10:53:39;1.37;;;1.07;;
12052;SDS011;6087;48.982;12.064;2023-04-03T10:56:13;1.40;;;0.97;;
12052;SDS011;6087;48.982;12.064;2023-04-03T10:58:45;2.73;;;1.17;;
12052;SDS011;6087;48.982;12.064;2023-04-03T11:01:18;1.43;;;0.83;;
12052;SDS011;6087;48.982;12.064;2023-04-03T11:03:49;1.70;;;0.80;;
12052;SDS011;6087;48.982;12.064;2023-04-03T11:06:21;1.23;;;0.80;;
12052;SDS011;6087;48.982;12.064;2023-04-03T11:08:51;1.90;;;0.93;;
12052;SDS011;6087;48.982;12.064;2023-04-03T11:11:25;2.67;;;1.30;;
12052;SDS011;6087;48.982;12.064;2023-04-03T11:13:56;1.00;;;0.73;;
12052;SDS011;6087;48.982;12.064;2023-04-03T11:16:31;0.97;;;0.70;;
12052;SDS011;6087;48.982;12.064;2023-04-03T11:19:03;1.60;;;1.20;;
12052;SDS011;6087;48.982;12.064;2023-04-03T11:21:39;1.23;;;0.80;;
12052;SDS011;6087;48.982;12.064;2023-04-03T11:24:11;1.73;;;0.80;;
12052;SDS011;6087;48.982;12.064;2023-04-03T11:26:47;1.47;;;1.00;;
12052;SDS011;6087;48.982;12.064;2023-04-03T11:29:18;1.40;;;0.90;;
12052;SDS011;6087;48.982;12.064;2023-04-03T11:31:53;2.93;;;1.00;;
12052;SDS011;6087;48.982;12.064;2023-04-03T11:34:39;1.10;;;1.00;;
12052;SDS011;6087;48.982;12.064;2023-04-03T11:37:12;1.40;;;1.03;;
12052;SDS011;6087;48.982;12.064;2023-04-03T11:39:47;1.87;;;1.20;;
12052;SDS011;6087;48.982;12.064;2023-04-03T11:42:25;1.10;;;0.80;;
12052;SDS011;6087;48.982;12.064;2023-04-03T11:47:50;1.67;;;1.00;;
12052;SDS011;6087;48.982;12.064;2023-04-03T11:50:32;1.00;;;0.90;;
12052;SDS011;6087;48.982;12.064;2023-04-03T11:55:54;1.87;;;1.13;;
12052;SDS011;6087;48.982;12.064;2023-04-03T11:58:27;2.27;;;1.07;;
12052;SDS011;6087;48.982;12.064;2023-04-03T12:04:10;1.40;;;1.00;;
12052;SDS011;6087;48.982;12.064;2023-04-03T12:06:48;2.37;;;1.10;;
12052;SDS011;6087;48.982;12.064;2023-04-03T12:12:41;1.40;;;1.03;;
12052;SDS011;6087;48.982;12.064;2023-04-03T12:21:18;1.30;;;0.83;;
12052;SDS011;6087;48.982;12.064;2023-04-03T12:26:50;3.37;;;1.27;;
12052;SDS011;6087;48.982;12.064;2023-04-03T12:29:29;1.20;;;1.10;;
12052;SDS011;6087;48.982;12.064;2023-04-03T12:32:09;1.40;;;0.80;;
12052;SDS011;6087;48.982;12.064;2023-04-03T12:34:48;3.03;;;0.98;;
12052;SDS011;6087;48.982;12.064;2023-04-03T12:37:28;1.73;;;1.48;;
12052;SDS011;6087;48.982;12.064;2023-04-03T12:40:13;1.23;;;0.85;;
12052;SDS011;6087;48.982;12.064;2023-04-03T12:42:55;1.02;;;1.00;;
12052;SDS011;6087;48.982;12.064;2023-04-03T12:45:37;1.08;;;0.90;;
12052;SDS011;6087;48.982;12.064;2023-04-03T12:48:12;1.40;;;1.10;;
12052;SDS011;6087;48.982;12.064;2023-04-03T12:50:42;1.73;;;1.00;;
12052;SDS011;6087;48.982;12.064;2023-04-03T12:53:13;1.35;;;1.05;;
12052;SDS011;6087;48.982;12.064;2023-04-03T12:55:43;1.98;;;1.10;;
12052;SDS011;6087;48.982;12.064;2023-04-03T12:58:13;1.45;;;0.93;;
12052;SDS011;6087;48.982;12.064;2023-04-03T13:00:41;2.92;;;1.73;;
12052;SDS011;6087;48.982;12.064;2023-04-03T13:03:18;1.40;;;1.20;;
12052;SDS011;6087;48.982;12.064;2023-04-03T13:05:49;1.27;;;1.05;;
12052;SDS011;6087;48.982;12.064;2023-04-03T13:08:20;0.98;;;0.93;;
12052;SDS011;6087;48.982;12.064;2023-04-03T13:10:53;1.70;;;1.33;;
12052;SDS011;6087;48.982;12.064;2023-04-03T13:13:22;1.20;;;1.10;;
12052;SDS011;6087;48.982;12.064;2023-04-03T13:15:53;1.30;;;1.20;;
12052;SDS011;6087;48.982;12.064;2023-04-03T13:18:21;2.63;;;1.00;;
12052;SDS011;6087;48.982;12.064;2023-04-03T13:20:53;3.65;;;1.02;;
12052;SDS011;6087;48.982;12.064;2023-04-03T13:23:28;1.77;;;1.20;;
12052;SDS011;6087;48.982;12.064;2023-04-03T13:25:56;2.08;;;1.20;;
12052;SDS011;6087;48.982;12.064;2023-04-03T13:28:27;3.72;;;1.05;;
12052;SDS011;6087;48.982;12.064;2023-04-03T13:31:08;2.65;;;1.15;;
12052;SDS011;6087;48.982;12.064;2023-04-03T13:33:43;1.55;;;0.98;;
12052;SDS011;6087;48.982;12.064;2023-04-03T13:36:22;5.25;;;1.30;;
12052;SDS011;6087;48.982;12.064;2023-04-03T13:39:04;1.65;;;0.90;;
12052;SDS011;6087;48.982;12.064;2023-04-03T13:41:34;1.15;;;1.00;;
12052;SDS011;6087;48.982;12.064;2023-04-03T13:44:16;3.60;;;1.15;;
12052;SDS011;6087;48.982;12.064;2023-04-03T13:46:52;1.42;;;1.05;;
12052;SDS011;6087;48.982;12.064;2023-04-03T13:49:20;2.70;;;1.27;;
12052;SDS011;6087;48.982;12.064;2023-04-03T13:51:52;1.75;;;0.90;;
12052;SDS011;6087;48.982;12.064;2023-04-03T13:54:22;1.75;;;1.10;;
12052;SDS011;6087;48.982;12.064;2023-04-03T13:56:52;1.92;;;1.40;;
12052;SDS011;6087;48.982;12.064;2023-04-03T13:59:23;1.50;;;0.90;;
12052;SDS011;6087;48.982;12.064;2023-04-03T14:01:54;1.50;;;1.10;;
12052;SDS011;6087;48.982;12.064;2023-04-03T14:04:43;2.67;;;0.95;;
12052;SDS011;6087;48.982;12.064;2023-04-03T14:07:13;5.32;;;1.25;;
12052;SDS011;6087;48.982;12.064;2023-04-03T14:09:42;1.85;;;0.90;;
12052;SDS011;6087;48.982;12.064;2023-04-03T14:12:12;1.20;;;1.08;;
12052;SDS011;6087;48.982;12.064;2023-04-03T14:14:41;4.63;;;1.17;;
12052;SDS011;6087;48.982;12.064;2023-04-03T14:17:10;1.67;;;1.10;;
12052;SDS011;6087;48.982;12.064;2023-04-03T14:19:40;2.35;;;1.10;;
12052;SDS011;6087;48.982;12.064;2023-04-03T14:22:11;0.85;;;0.80;;
12052;SDS011;6087;48.982;12.064;2023-04-03T14:24:42;2.40;;;1.30;;
12052;SDS011;6087;48.982;12.064;2023-04-03T14:27:13;2.53;;;1.35;;
12052;SDS011;6087;48.982;12.064;2023-04-03T14:29:43;1.85;;;1.30;;
12052;SDS011;6087;48.982;12.064;2023-04-03T14:32:11;1.05;;;1.02;;
12052;SDS011;6087;48.982;12.064;2023-04-03T14:34:40;2.47;;;1.40;;
12052;SDS011;6087;48.982;12.064;2023-04-03T14:37:09;11.77;;;8.40;;
12052;SDS011;6087;48.982;12.064;2023-04-03T14:39:37;5.80;;;1.90;;
12052;SDS011;6087;48.982;12.064;2023-04-03T14:42:06;4.57;;;2.67;;
12052;SDS011;6087;48.982;12.064;2023-04-03T14:44:44;1.52;;;1.10;;
12052;SDS011;6087;48.982;12.064;2023-04-03T14:47:11;3.55;;;2.00;;
12052;SDS011;6087;48.982;12.064;2023-04-03T14:49:42;5.82;;;2.83;;
12052;SDS011;6087;48.982;12.064;2023-04-03T14:52:16;7.43;;;4.50;;
12052;SDS011;6087;48.982;12.064;2023-04-03T14:54:45;1.80;;;1.33;;
12052;SDS011;6087;48.982;12.064;2023-04-03T14:57:14;1.25;;;0.95;;
12052;SDS011;6087;48.982;12.064;2023-04-03T14:59:45;5.32;;;1.23;;
12052;SDS011;6087;48.982;12.064;2023-04-03T15:02:24;1.70;;;1.10;;
12052;SDS011;6087;48.982;12.064;2023-04-03T15:04:53;1.95;;;1.08;;
12052;SDS011;6087;48.982;12.064;2023-04-03T15:07:20;8.77;;;5.20;;
12052;SDS011;6087;48.982;12.064;2023-04-03T15:09:48;10.60;;;5.38;;
12052;SDS011;6087;48.982;12.064;2023-04-03T15:12:17;11.02;;;5.32;;
12052;SDS011;6087;48.982;12.064;2023-04-03T15:14:44;6.57;;;3.28;;
12052;SDS011;6087;48.982;12.064;2023-04-03T15:17:13;23.48;;;10.55;;
12052;SDS011;6087;48.982;12.064;2023-04-03T15:19:43;10.48;;;5.78;;
12052;SDS011;6087;48.982;12.064;2023-04-03T15:22:12;7.07;;;4.68;;
12052;SDS011;6087;48.982;12.064;2023-04-03T15:24:40;4.28;;;2.42;;
12052;SDS011;6087;48.982;12.064;2023-04-03T15:27:07;2.78;;;1.20;;
12052;SDS011;6087;48.982;12.064;2023-04-03T15:29:36;1.55;;;1.17;;
12052;SDS011;6087;48.982;12.064;2023-04-03T15:32:03;1.67;;;1.33;;
12052;SDS011;6087;48.982;12.064;2023-04-03T15:34:31;2.70;;;1.10;;
12052;SDS011;6087;48.982;12.064;2023-04-03T15:36:58;3.33;;;1.40;;
12052;SDS011;6087;48.982;12.064;2023-04-03T15:39:25;1.73;;;1.40;;